createdAt,value
2017-12-02T07:02:17.658Z,16.67
2017-12-02T07:04:46.000Z,19.92
2017-12-02T07:07:13.946Z,21.65
2017-12-02T07:09:44.913Z,21.60
2017-12-02T07:12:12.907Z,15.82
2017-12-02T07:14:41.247Z,18.60
2017-12-02T07:17:09.360Z,15.73
2017-12-02T07:19:40.492Z,17.83
2017-12-02T07:22:08.419Z,16.15
2017-12-02T07:24:36.709Z,17.12
2017-12-02T07:27:05.482Z,18.25
2017-12-02T07:29:35.051Z,18.23
2017-12-02T07:32:03.495Z,15.98
2017-12-02T07:34:31.920Z,17.58
2017-12-02T07:36:59.997Z,18.40
2017-12-02T07:39:28.463Z,17.33
2017-12-02T07:41:56.363Z,22.90
2017-12-02T07:44:45.431Z,17.75
2017-12-02T07:54:56.741Z,19.35
2017-12-02T07:57:24.839Z,18.92
2017-12-02T08:00:02.918Z,16.60
2017-12-02T08:02:42.666Z,16.58
2017-12-02T08:05:11.360Z,18.70
2017-12-02T08:07:39.596Z,18.85
2017-12-02T08:10:18.568Z,15.73
2017-12-02T08:12:47.101Z,15.07
2017-12-02T08:15:17.581Z,17.67
2017-12-02T08:17:46.919Z,15.13
2017-12-02T08:20:15.619Z,18.92
2017-12-02T08:22:46.075Z,22.27
2017-12-02T08:25:31.465Z,18.65
2017-12-02T08:30:39.966Z,15.13
2017-12-02T08:33:08.883Z,22.35
2017-12-02T09:25:49.940Z,8.17
2017-12-02T09:28:29.434Z,6.90
2017-12-02T09:42:15.216Z,9.60
2017-12-02T09:53:54.030Z,6.97
2017-12-02T10:02:28.355Z,10.77
2017-12-02T10:08:46.871Z,10.43
2017-12-02T10:11:15.568Z,11.07
2017-12-02T10:16:22.250Z,10.50
2017-12-02T10:21:29.777Z,10.13
2017-12-02T10:26:46.916Z,9.17
2017-12-02T10:29:15.779Z,10.27
2017-12-02T10:31:47.728Z,10.13
2017-12-02T10:34:15.736Z,9.00
2017-12-02T10:36:44.034Z,8.80
2017-12-02T10:39:12.998Z,10.20
2017-12-02T10:41:41.565Z,10.13
2017-12-02T10:44:09.586Z,10.97
2017-12-02T10:46:38.294Z,11.13
2017-12-02T10:49:07.204Z,12.30
2017-12-02T10:51:37.110Z,11.90
2017-12-02T10:54:07.874Z,14.77
2017-12-02T10:56:36.898Z,13.43
2017-12-02T10:59:06.984Z,13.53
2017-12-02T11:01:35.243Z,10.93
2017-12-02T11:04:07.707Z,10.30
2017-12-02T11:06:37.232Z,10.80
2017-12-02T11:09:06.662Z,11.10
2017-12-02T11:11:35.299Z,10.70
2017-12-02T11:14:04.663Z,9.07
2017-12-02T11:16:34.188Z,13.57
2017-12-02T11:19:13.666Z,9.37
2017-12-02T11:21:43.282Z,10.07
2017-12-02T11:24:14.338Z,11.67
2017-12-02T11:29:23.002Z,9.07
